sensor_id;sensor_type;location;lat;lon;timestamp;P1;durP1;ratioP1;P2;durP2;ratioP2
11287;SDS011;5700;50.996;7.044;2023-04-03T00:02:04;4.97;;;2.95;;
11287;SDS011;5700;50.996;7.044;2023-04-03T00:05:06;5.55;;;2.78;;
11287;SDS011;5700;50.996;7.044;2023-04-03T00:08:09;5.25;;;2.85;;
11287;SDS011;5700;50.996;7.044;2023-04-03T00:11:10;5.88;;;2.58;;
11287;SDS011;5700;50.996;7.044;2023-04-03T00:14:12;4.60;;;3.05;;
11287;SDS011;5700;50.996;7.044;2023-04-03T00:17:13;5.20;;;3.13;;
11287;SDS011;5700;50.996;7.044;2023-04-03T00:20:15;4.25;;;2.88;;
11287;SDS011;5700;50.996;7.044;2023-04-03T00:23:17;4.80;;;2.72;;
11287;SDS011;5700;50.996;7.044;2023-04-03T00:26:19;7.20;;;3.22;;
11287;SDS011;5700;50.996;7.044;2023-04-03T00:29:20;4.45;;;2.80;;
11287;SDS011;5700;50.996;7.044;2023-04-03T00:32:22;5.75;;;2.42;;
11287;SDS011;5700;50.996;7.044;2023-04-03T00:35:24;4.57;;;2.60;;
11287;SDS011;5700;50.996;7.044;2023-04-03T00:38:26;4.88;;;2.85;;
11287;SDS011;5700;50.996;7.044;2023-04-03T00:41:28;8.45;;;2.70;;
11287;SDS011;5700;50.996;7.044;2023-04-03T00:48:02;6.05;;;2.97;;
11287;SDS011;5700;50.996;7.044;2023-04-03T00:51:07;3.90;;;2.88;;
11287;SDS011;5700;50.996;7.044;2023-04-03T00:54:13;6.43;;;3.17;;
11287;SDS011;5700;50.996;7.044;2023-04-03T00:57:15;3.58;;;2.38;;
11287;SDS011;5700;50.996;7.044;2023-04-03T01:00:18;7.47;;;2.97;;
11287;SDS011;5700;50.996;7.044;2023-04-03T01:03:22;9.35;;;2.80;;
11287;SDS011;5700;50.996;7.044;2023-04-03T01:06:24;5.30;;;3.00;;
11287;SDS011;5700;50.996;7.044;2023-04-03T01:09:32;5.53;;;3.05;;
11287;SDS011;5700;50.996;7.044;2023-04-03T01:12:35;6.50;;;2.95;;
11287;SDS011;5700;50.996;7.044;2023-04-03T01:15:38;5.03;;;3.05;;
11287;SDS011;5700;50.996;7.044;2023-04-03T01:18:40;5.97;;;3.20;;
11287;SDS011;5700;50.996;7.044;2023-04-03T01:21:47;5.53;;;2.70;;
11287;SDS011;5700;50.996;7.044;2023-04-03T01:24:58;4.63;;;2.75;;
11287;SDS011;5700;50.996;7.044;2023-04-03T01:28:00;3.55;;;2.58;;
11287;SDS011;5700;50.996;7.044;2023-04-03T01:31:02;5.75;;;2.63;;
11287;SDS011;5700;50.996;7.044;2023-04-03T01:34:10;4.30;;;2.70;;
11287;SDS011;5700;50.996;7.044;2023-04-03T01:37:12;5.32;;;2.58;;
11287;SDS011;5700;50.996;7.044;2023-04-03T01:40:13;5.45;;;2.78;;
11287;SDS011;5700;50.996;7.044;2023-04-03T01:43:14;4.53;;;2.78;;
11287;SDS011;5700;50.996;7.044;2023-04-03T01:46:16;7.43;;;3.03;;
11287;SDS011;5700;50.996;7.044;2023-04-03T01:49:19;4.50;;;2.88;;
11287;SDS011;5700;50.996;7.044;2023-04-03T01:52:20;5.22;;;2.55;;
11287;SDS011;5700;50.996;7.044;2023-04-03T01:55:21;5.43;;;3.15;;
11287;SDS011;5700;50.996;7.044;2023-04-03T01:58:23;4.70;;;3.38;;
11287;SDS011;5700;50.996;7.044;2023-04-03T02:01:24;5.30;;;3.30;;
11287;SDS011;5700;50.996;7.044;2023-04-03T02:04:28;9.30;;;3.92;;
11287;SDS011;5700;50.996;7.044;2023-04-03T02:07:29;5.18;;;3.38;;
11287;SDS011;5700;50.996;7.044;2023-04-03T02:10:30;5.35;;;3.40;;
11287;SDS011;5700;50.996;7.044;2023-04-03T02:13:32;10.63;;;3.28;;
11287;SDS011;5700;50.996;7.044;2023-04-03T02:16:33;6.25;;;3.20;;
11287;SDS011;5700;50.996;7.044;2023-04-03T02:19:36;5.43;;;3.45;;
11287;SDS011;5700;50.996;7.044;2023-04-03T02:22:37;7.82;;;3.70;;
11287;SDS011;5700;50.996;7.044;2023-04-03T02:25:39;7.22;;;2.95;;
11287;SDS011;5700;50.996;7.044;2023-04-03T02:28:40;5.20;;;3.00;;
11287;SDS011;5700;50.996;7.044;2023-04-03T02:31:42;6.05;;;3.40;;
11287;SDS011;5700;50.996;7.044;2023-04-03T02:34:44;5.45;;;3.38;;
11287;SDS011;5700;50.996;7.044;2023-04-03T02:37:46;7.20;;;3.70;;
11287;SDS011;5700;50.996;7.044;2023-04-03T02:40:47;5.20;;;3.28;;
11287;SDS011;5700;50.996;7.044;2023-04-03T02:43:49;11.63;;;3.92;;
11287;SDS011;5700;50.996;7.044;2023-04-03T02:46:50;8.00;;;3.53;;
11287;SDS011;5700;50.996;7.044;2023-04-03T02:49:53;8.40;;;3.40;;
11287;SDS011;5700;50.996;7.044;2023-04-03T02:52:54;7.38;;;3.95;;
11287;SDS011;5700;50.996;7.044;2023-04-03T02:55:56;5.40;;;3.17;;
11287;SDS011;5700;50.996;7.044;2023-04-03T02:58:57;5.78;;;3.55;;
11287;SDS011;5700;50.996;7.044;2023-04-03T03:01:59;7.63;;;3.17;;
11287;SDS011;5700;50.996;7.044;2023-04-03T03:05:01;5.22;;;2.78;;
11287;SDS011;5700;50.996;7.044;2023-04-03T03:08:03;5.43;;;2.90;;
11287;SDS011;5700;50.996;7.044;2023-04-03T03:11:04;5.18;;;3.20;;
11287;SDS011;5700;50.996;7.044;2023-04-03T03:14:06;7.50;;;3.65;;
11287;SDS011;5700;50.996;7.044;2023-04-03T03:17:07;5.07;;;2.95;;
11287;SDS011;5700;50.996;7.044;2023-04-03T03:20:11;6.47;;;3.25;;
11287;SDS011;5700;50.996;7.044;2023-04-03T03:23:14;5.65;;;3.17;;
11287;SDS011;5700;50.996;7.044;2023-04-03T03:26:15;5.10;;;3.03;;
11287;SDS011;5700;50.996;7.044;2023-04-03T03:29:16;7.35;;;3.65;;
11287;SDS011;5700;50.996;7.044;2023-04-03T03:32:18;5.20;;;3.22;;
11287;SDS011;5700;50.996;7.044;2023-04-03T03:35:21;3.83;;;2.78;;
11287;SDS011;5700;50.996;7.044;2023-04-03T03:38:22;6.70;;;3.22;;
11287;SDS011;5700;50.996;7.044;2023-04-03T03:41:24;5.38;;;2.95;;
11287;SDS011;5700;50.996;7.044;2023-04-03T03:44:25;3.88;;;2.67;;
11287;SDS011;5700;50.996;7.044;2023-04-03T03:47:28;5.25;;;2.88;;
11287;SDS011;5700;50.996;7.044;2023-04-03T03:50:31;9.07;;;2.90;;
11287;SDS011;5700;50.996;7.044;2023-04-03T03:53:33;7.30;;;3.20;;
11287;SDS011;5700;50.996;7.044;2023-04-03T03:56:35;5.25;;;2.72;;
11287;SDS011;5700;50.996;7.044;2023-04-03T03:59:36;5.55;;;2.78;;
11287;SDS011;5700;50.996;7.044;2023-04-03T04:02:37;5.82;;;2.67;;
11287;SDS011;5700;50.996;7.044;2023-04-03T04:05:40;3.63;;;2.50;;
11287;SDS011;5700;50.996;7.044;2023-04-03T04:08:42;5.20;;;2.47;;
11287;SDS011;5700;50.996;7.044;2023-04-03T04:11:43;3.22;;;2.20;;
11287;SDS011;5700;50.996;7.044;2023-04-03T04:14:45;4.35;;;2.28;;
11287;SDS011;5700;50.996;7.044;2023-04-03T04:17:46;6.20;;;2.42;;
11287;SDS011;5700;50.996;7.044;2023-04-03T04:20:49;3.17;;;2.10;;
11287;SDS011;5700;50.996;7.044;2023-04-03T04:23:51;3.97;;;2.03;;
11287;SDS011;5700;50.996;7.044;2023-04-03T04:26:52;5.72;;;2.22;;
11287;SDS011;5700;50.996;7.044;2023-04-03T04:29:53;5.22;;;2.22;;
11287;SDS011;5700;50.996;7.044;2023-04-03T04:32:55;4.05;;;2.03;;
11287;SDS011;5700;50.996;7.044;2023-04-03T04:35:58;5.25;;;2.50;;
11287;SDS011;5700;50.996;7.044;2023-04-03T04:38:59;3.55;;;2.30;;
11287;SDS011;5700;50.996;7.044;2023-04-03T04:42:01;4.97;;;2.17;;
11287;SDS011;5700;50.996;7.044;2023-04-03T04:45:02;6.10;;;1.90;;
11287;SDS011;5700;50.996;7.044;2023-04-03T04:48:04;2.97;;;1.90;;
11287;SDS011;5700;50.996;7.044;2023-04-03T04:51:07;4.20;;;1.70;;
11287;SDS011;5700;50.996;7.044;2023-04-03T04:54:09;2.65;;;1.77;;
11287;SDS011;5700;50.996;7.044;2023-04-03T04:57:10;6.30;;;1.63;;
11287;SDS011;5700;50.996;7.044;2023-04-03T05:00:12;4.75;;;1.60;;
11287;SDS011;5700;50.996;7.044;2023-04-03T05:03:14;4.75;;;2.00;;
11287;SDS011;5700;50.996;7.044;2023-04-03T05:06:17;7.47;;;1.92;;
11287;SDS011;5700;50.996;7.044;2023-04-03T05:09:19;3.42;;;1.67;;
11287;SDS011;5700;50.996;7.044;2023-04-03T05:12:20;2.85;;;1.67;;
11287;SDS011;5700;50.996;7.044;2023-04-03T05:15:22;3.75;;;2.00;;
11287;SDS011;5700;50.996;7.044;2023-04-03T05:18:23;4.38;;;2.00;;
11287;SDS011;5700;50.996;7.044;2023-04-03T05:21:26;5.28;;;2.25;;
11287;SDS011;5700;50.996;7.044;2023-04-03T05:24:31;3.25;;;1.80;;
11287;SDS011;5700;50.996;7.044;2023-04-03T05:27:33;4.30;;;1.67;;
11287;SDS011;5700;50.996;7.044;2023-04-03T05:30:34;4.75;;;2.10;;
11287;SDS011;5700;50.996;7.044;2023-04-03T05:33:36;3.75;;;2.10;;
11287;SDS011;5700;50.996;7.044;2023-04-03T05:36:38;4.25;;;2.28;;
11287;SDS011;5700;50.996;7.044;2023-04-03T05:39:40;4.10;;;2.35;;
11287;SDS011;5700;50.996;7.044;2023-04-03T05:42:41;3.53;;;1.80;;
11287;SDS011;5700;50.996;7.044;2023-04-03T05:45:43;6.53;;;2.78;;
11287;SDS011;5700;50.996;7.044;2023-04-03T05:48:44;6.75;;;2.45;;
11287;SDS011;5700;50.996;7.044;2023-04-03T05:51:47;2.95;;;1.90;;
11287;SDS011;5700;50.996;7.044;2023-04-03T05:54:48;3.67;;;2.30;;
11287;SDS011;5700;50.996;7.044;2023-04-03T05:57:50;2.53;;;1.70;;
11287;SDS011;5700;50.996;7.044;2023-04-03T06:00:51;3.33;;;2.10;;
11287;SDS011;5700;50.996;7.044;2023-04-03T06:03:53;3.15;;;1.92;;
11287;SDS011;5700;50.996;7.044;2023-04-03T06:06:57;3.72;;;1.85;;
11287;SDS011;5700;50.996;7.044;2023-04-03T06:09:58;2.75;;;1.75;;
11287;SDS011;5700;50.996;7.044;2023-04-03T06:13:01;3.20;;;1.95;;
11287;SDS011;5700;50.996;7.044;2023-04-03T06:16:03;6.28;;;2.03;;
11287;SDS011;5700;50.996;7.044;2023-04-03T06:19:05;3.55;;;1.95;;
11287;SDS011;5700;50.996;7.044;2023-04-03T06:22:08;6.68;;;2.40;;
11287;SDS011;5700;50.996;7.044;2023-04-03T06:25:11;3.72;;;1.40;;
11287;SDS011;5700;50.996;7.044;2023-04-03T06:28:13;2.70;;;1.05;;
11287;SDS011;5700;50.996;7.044;2023-04-03T06:31:14;1.35;;;1.00;;
11287;SDS011;5700;50.996;7.044;2023-04-03T06:34:17;2.88;;;1.40;;
11287;SDS011;5700;50.996;7.044;2023-04-03T06:37:20;2.65;;;1.40;;
11287;SDS011;5700;50.996;7.044;2023-04-03T06:40:23;1.92;;;1.17;;
11287;SDS011;5700;50.996;7.044;2023-04-03T06:43:26;1.98;;;1.50;;
11287;SDS011;5700;50.996;7.044;2023-04-03T06:46:27;2.72;;;1.30;;
11287;SDS011;5700;50.996;7.044;2023-04-03T06:49:29;3.00;;;1.13;;
11287;SDS011;5700;50.996;7.044;2023-04-03T06:52:31;1.98;;;1.27;;
11287;SDS011;5700;50.996;7.044;2023-04-03T06:55:33;5.18;;;1.30;;
11287;SDS011;5700;50.996;7.044;2023-04-03T06:58:34;3.40;;;1.25;;
11287;SDS011;5700;50.996;7.044;2023-04-03T07:01:36;5.47;;;1.67;;
11287;SDS011;5700;50.996;7.044;2023-04-03T07:04:37;3.40;;;1.02;;
11287;SDS011;5700;50.996;7.044;2023-04-03T07:07:40;2.53;;;1.13;;
11287;SDS011;5700;50.996;7.044;2023-04-03T07:10:41;3.78;;;1.55;;
11287;SDS011;5700;50.996;7.044;2023-04-03T07:13:43;2.25;;;1.05;;
11287;SDS011;5700;50.996;7.044;2023-04-03T07:16:44;7.32;;;1.30;;
11287;SDS011;5700;50.996;7.044;2023-04-03T07:19:45;2.45;;;1.27;;
11287;SDS011;5700;50.996;7.044;2023-04-03T07:22:48;2.85;;;1.27;;
11287;SDS011;5700;50.996;7.044;2023-04-03T07:25:50;4.22;;;1.23;;
11287;SDS011;5700;50.996;7.044;2023-04-03T07:28:52;2.97;;;1.13;;
11287;SDS011;5700;50.996;7.044;2023-04-03T07:31:54;6.30;;;1.60;;
11287;SDS011;5700;50.996;7.044;2023-04-03T07:34:56;3.10;;;1.00;;
11287;SDS011;5700;50.996;7.044;2023-04-03T07:37:59;6.10;;;1.20;;
11287;SDS011;5700;50.996;7.044;2023-04-03T07:41:01;7.07;;;1.20;;
11287;SDS011;5700;50.996;7.044;2023-04-03T07:44:03;4.65;;;1.27;;
11287;SDS011;5700;50.996;7.044;2023-04-03T07:47:05;4.32;;;1.10;;
11287;SDS011;5700;50.996;7.044;2023-04-03T07:50:08;2.13;;;0.95;;
11287;SDS011;5700;50.996;7.044;2023-04-03T07:53:11;3.03;;;1.10;;
11287;SDS011;5700;50.996;7.044;2023-04-03T07:56:12;4.75;;;1.10;;
11287;SDS011;5700;50.996;7.044;2023-04-03T07:59:13;2.08;;;1.25;;
11287;SDS011;5700;50.996;7.044;2023-04-03T08:02:15;1.65;;;0.90;;
11287;SDS011;5700;50.996;7.044;2023-04-03T08:05:17;2.25;;;1.30;;
11287;SDS011;5700;50.996;7.044;2023-04-03T08:08:22;3.00;;;1.10;;
11287;SDS011;5700;50.996;7.044;2023-04-03T08:11:24;6.25;;;1.48;;
11287;SDS011;5700;50.996;7.044;2023-04-03T08:14:26;3.95;;;1.00;;
11287;SDS011;5700;50.996;7.044;2023-04-03T08:17:28;5.50;;;1.33;;
11287;SDS011;5700;50.996;7.044;2023-04-03T08:20:29;5.38;;;1.45;;
11287;SDS011;5700;50.996;7.044;2023-04-03T08:23:32;2.00;;;1.25;;
11287;SDS011;5700;50.996;7.044;2023-04-03T08:26:33;3.92;;;1.13;;
11287;SDS011;5700;50.996;7.044;2023-04-03T08:29:35;2.85;;;0.90;;
11287;SDS011;5700;50.996;7.044;2023-04-03T08:32:37;2.10;;;0.95;;
11287;SDS011;5700;50.996;7.044;2023-04-03T08:35:40;2.97;;;1.00;;
11287;SDS011;5700;50.996;7.044;2023-04-03T08:38:43;4.88;;;1.10;;
11287;SDS011;5700;50.996;7.044;2023-04-03T08:41:45;1.58;;;1.02;;
11287;SDS011;5700;50.996;7.044;2023-04-03T08:44:48;3.17;;;0.95;;
11287;SDS011;5700;50.996;7.044;2023-04-03T08:47:57;2.65;;;0.90;;
11287;SDS011;5700;50.996;7.044;2023-04-03T08:51:02;1.95;;;0.80;;
11287;SDS011;5700;50.996;7.044;2023-04-03T08:54:14;4.50;;;0.95;;
11287;SDS011;5700;50.996;7.044;2023-04-03T08:57:26;1.83;;;0.70;;
11287;SDS011;5700;50.996;7.044;2023-04-03T09:00:32;1.70;;;0.82;;
11287;SDS011;5700;50.996;7.044;2023-04-03T09:03:38;3.78;;;0.98;;
11287;SDS011;5700;50.996;7.044;2023-04-03T09:06:41;3.90;;;0.65;;
11287;SDS011;5700;50.996;7.044;2023-04-03T09:09:45;0.93;;;0.55;;
11287;SDS011;5700;50.996;7.044;2023-04-03T09:12:51;3.03;;;1.15;;
11287;SDS011;5700;50.996;7.044;2023-04-03T09:15:56;4.35;;;0.82;;
11287;SDS011;5700;50.996;7.044;2023-04-03T09:19:00;1.00;;;0.88;;
11287;SDS011;5700;50.996;7.044;2023-04-03T09:22:11;0.68;;;0.52;;
11287;SDS011;5700;50.996;7.044;2023-04-03T09:25:19;1.02;;;0.70;;
11287;SDS011;5700;50.996;7.044;2023-04-03T09:28:22;1.48;;;0.80;;
11287;SDS011;5700;50.996;7.044;2023-04-03T09:31:26;1.20;;;0.57;;
11287;SDS011;5700;50.996;7.044;2023-04-03T09:34:30;3.45;;;0.70;;
11287;SDS011;5700;50.996;7.044;2023-04-03T09:37:33;0.57;;;0.57;;
11287;SDS011;5700;50.996;7.044;2023-04-03T09:40:40;2.72;;;0.80;;
11287;SDS011;5700;50.996;7.044;2023-04-03T09:43:51;3.80;;;1.10;;
11287;SDS011;5700;50.996;7.044;2023-04-03T09:46:53;1.25;;;0.80;;
11287;SDS011;5700;50.996;7.044;2023-04-03T09:50:08;4.22;;;1.23;;
11287;SDS011;5700;50.996;7.044;2023-04-03T09:53:25;2.05;;;0.88;;
11287;SDS011;5700;50.996;7.044;2023-04-03T09:56:30;1.77;;;0.70;;
11287;SDS011;5700;50.996;7.044;2023-04-03T09:59:33;3.08;;;0.80;;
11287;SDS011;5700;50.996;7.044;2023-04-03T10:02:36;0.88;;;0.70;;
11287;SDS011;5700;50.996;7.044;2023-04-03T10:05:39;2.47;;;0.93;;
11287;SDS011;5700;50.996;7.044;2023-04-03T10:08:41;3.33;;;0.77;;
11287;SDS011;5700;50.996;7.044;2023-04-03T10:11:49;3.40;;;1.08;;
11287;SDS011;5700;50.996;7.044;2023-04-03T10:15:00;2.25;;;0.65;;
11287;SDS011;5700;50.996;7.044;2023-04-03T10:18:02;1.30;;;0.80;;
11287;SDS011;5700;50.996;7.044;2023-04-03T10:21:05;0.68;;;0.60;;
11287;SDS011;5700;50.996;7.044;2023-04-03T10:24:09;1.67;;;0.75;;
11287;SDS011;5700;50.996;7.044;2023-04-03T10:27:16;1.70;;;1.00;;
11287;SDS011;5700;50.996;7.044;2023-04-03T10:30:21;3.35;;;1.20;;
11287;SDS011;5700;50.996;7.044;2023-04-03T10:33:35;3.08;;;1.00;;
11287;SDS011;5700;50.996;7.044;2023-04-03T10:36:42;0.50;;;0.50;;
11287;SDS011;5700;50.996;7.044;2023-04-03T10:39:50;2.58;;;0.65;;
11287;SDS011;5700;50.996;7.044;2023-04-03T10:42:56;0.57;;;0.40;;
11287;SDS011;5700;50.996;7.044;2023-04-03T10:46:04;1.95;;;0.77;;
11287;SDS011;5700;50.996;7.044;2023-04-03T10:49:11;0.50;;;0.50;;
11287;SDS011;5700;50.996;7.044;2023-04-03T10:52:20;0.90;;;0.38;;
11287;SDS011;5700;50.996;7.044;2023-04-03T10:55:24;1.38;;;0.63;;
11287;SDS011;5700;50.996;7.044;2023-04-03T10:58:34;1.42;;;0.65;;
11287;SDS011;5700;50.996;7.044;2023-04-03T11:01:38;3.40;;;0.68;;
11287;SDS011;5700;50.996;7.044;2023-04-03T11:04:41;1.77;;;0.50;;
11287;SDS011;5700;50.996;7.044;2023-04-03T11:07:45;1.80;;;0.52;;
11287;SDS011;5700;50.996;7.044;2023-04-03T11:10:49;1.35;;;0.50;;
11287;SDS011;5700;50.996;7.044;2023-04-03T11:13:54;1.17;;;0.60;;
11287;SDS011;5700;50.996;7.044;2023-04-03T11:17:01;1.05;;;0.70;;
11287;SDS011;5700;50.996;7.044;2023-04-03T11:20:08;0.52;;;0.52;;
11287;SDS011;5700;50.996;7.044;2023-04-03T11:23:16;3.30;;;0.70;;
11287;SDS011;5700;50.996;7.044;2023-04-03T11:26:23;3.10;;;0.90;;
11287;SDS011;5700;50.996;7.044;2023-04-03T11:29:33;1.88;;;0.50;;
11287;SDS011;5700;50.996;7.044;2023-04-03T11:32:43;3.30;;;0.73;;
11287;SDS011;5700;50.996;7.044;2023-04-03T11:35:54;0.43;;;0.40;;
11287;SDS011;5700;50.996;7.044;2023-04-03T11:38:57;0.60;;;0.40;;
11287;SDS011;5700;50.996;7.044;2023-04-03T11:45:29;0.75;;;0.55;;
11287;SDS011;5700;50.996;7.044;2023-04-03T11:48:43;0.63;;;0.50;;
11287;SDS011;5700;50.996;7.044;2023-04-03T11:51:46;3.47;;;0.70;;
11287;SDS011;5700;50.996;7.044;2023-04-03T11:54:48;1.55;;;0.50;;
11287;SDS011;5700;50.996;7.044;2023-04-03T11:58:02;0.88;;;0.50;;
11287;SDS011;5700;50.996;7.044;2023-04-03T12:01:07;1.20;;;0.30;;
11287;SDS011;5700;50.996;7.044;2023-04-03T12:04:10;4.15;;;0.50;;
11287;SDS011;5700;50.996;7.044;2023-04-03T12:07:15;2.30;;;0.50;;
11287;SDS011;5700;50.996;7.044;2023-04-03T12:10:19;1.35;;;0.70;;
11287;SDS011;5700;50.996;7.044;2023-04-03T12:13:21;2.20;;;0.70;;
11287;SDS011;5700;50.996;7.044;2023-04-03T12:16:25;1.88;;;0.70;;
11287;SDS011;5700;50.996;7.044;2023-04-03T12:19:32;1.10;;;0.63;;
11287;SDS011;5700;50.996;7.044;2023-04-03T12:22:35;2.00;;;0.68;;
11287;SDS011;5700;50.996;7.044;2023-04-03T12:25:41;0.45;;;0.38;;
11287;SDS011;5700;50.996;7.044;2023-04-03T12:28:50;0.75;;;0.50;;
11287;SDS011;5700;50.996;7.044;2023-04-03T12:31:58;2.35;;;0.60;;
11287;SDS011;5700;50.996;7.044;2023-04-03T12:35:14;0.40;;;0.40;;
11287;SDS011;5700;50.996;7.044;2023-04-03T12:41:53;2.10;;;0.55;;
11287;SDS011;5700;50.996;7.044;2023-04-03T12:44:59;0.80;;;0.50;;
11287;SDS011;5700;50.996;7.044;2023-04-03T12:48:06;2.60;;;0.57;;
11287;SDS011;5700;50.996;7.044;2023-04-03T12:51:15;0.98;;;0.60;;
11287;SDS011;5700;50.996;7.044;2023-04-03T12:54:21;1.42;;;0.60;;
11287;SDS011;5700;50.996;7.044;2023-04-03T12:57:25;1.02;;;0.65;;
11287;SDS011;5700;50.996;7.044;2023-04-03T13:00:28;1.90;;;0.70;;
11287;SDS011;5700;50.996;7.044;2023-04-03T13:03:34;1.05;;;0.60;;
11287;SDS011;5700;50.996;7.044;2023-04-03T13:06:38;0.52;;;0.52;;
11287;SDS011;5700;50.996;7.044;2023-04-03T13:09:41;1.30;;;0.55;;
11287;SDS011;5700;50.996;7.044;2023-04-03T13:12:46;1.30;;;0.60;;
11287;SDS011;5700;50.996;7.044;2023-04-03T13:15:50;1.35;;;0.77;;
11287;SDS011;5700;50.996;7.044;2023-04-03T13:18:54;1.15;;;0.50;;
11287;SDS011;5700;50.996;7.044;2023-04-03T13:21:57;1.50;;;0.93;;
11287;SDS011;5700;50.996;7.044;2023-04-03T13:25:03;4.03;;;0.88;;
11287;SDS011;5700;50.996;7.044;2023-04-03T13:28:09;0.70;;;0.70;;
11287;SDS011;5700;50.996;7.044;2023-04-03T13:31:17;2.92;;;0.82;;
11287;SDS011;5700;50.996;7.044;2023-04-03T13:34:22;1.45;;;0.57;;
11287;SDS011;5700;50.996;7.044;2023-04-03T13:37:26;1.45;;;0.50;;
11287;SDS011;5700;50.996;7.044;2023-04-03T13:40:29;3.05;;;0.70;;
11287;SDS011;5700;50.996;7.044;2023-04-03T13:43:31;3.20;;;1.00;;
11287;SDS011;5700;50.996;7.044;2023-04-03T13:46:33;1.08;;;0.60;;
11287;SDS011;5700;50.996;7.044;2023-04-03T13:49:37;0.65;;;0.50;;
11287;SDS011;5700;50.996;7.044;2023-04-03T13:52:40;1.38;;;0.57;;
11287;SDS011;5700;50.996;7.044;2023-04-03T13:55:53;1.27;;;0.68;;
11287;SDS011;5700;50.996;7.044;2023-04-03T13:58:59;1.83;;;0.63;;
11287;SDS011;5700;50.996;7.044;2023-04-03T14:02:09;1.27;;;0.57;;
11287;SDS011;5700;50.996;7.044;2023-04-03T14:05:16;1.48;;;0.70;;
11287;SDS011;5700;50.996;7.044;2023-04-03T14:08:21;0.32;;;0.32;;
11287;SDS011;5700;50.996;7.044;2023-04-03T14:11:24;0.77;;;0.50;;
11287;SDS011;5700;50.996;7.044;2023-04-03T14:14:29;1.00;;;0.60;;
11287;SDS011;5700;50.996;7.044;2023-04-03T14:17:33;1.80;;;0.70;;
11287;SDS011;5700;50.996;7.044;2023-04-03T14:20:36;1.58;;;0.63;;
11287;SDS011;5700;50.996;7.044;2023-04-03T14:23:37;0.70;;;0.57;;
11287;SDS011;5700;50.996;7.044;2023-04-03T14:26:39;2.47;;;0.60;;
11287;SDS011;5700;50.996;7.044;2023-04-03T14:29:41;1.27;;;0.60;;
11287;SDS011;5700;50.996;7.044;2023-04-03T14:32:42;1.70;;;0.63;;
11287;SDS011;5700;50.996;7.044;2023-04-03T14:35:45;0.85;;;0.40;;
11287;SDS011;5700;50.996;7.044;2023-04-03T14:38:47;0.80;;;0.50;;
11287;SDS011;5700;50.996;7.044;2023-04-03T14:41:49;2.45;;;0.70;;
11287;SDS011;5700;50.996;7.044;2023-04-03T14:44:51;1.00;;;0.77;;
11287;SDS011;5700;50.996;7.044;2023-04-03T14:47:53;2.05;;;0.70;;
11287;SDS011;5700;50.996;7.044;2023-04-03T14:50:57;3.05;;;0.77;;
11287;SDS011;5700;50.996;7.044;2023-04-03T14:53:58;0.60;;;0.50;;
11287;SDS011;5700;50.996;7.044;2023-04-03T14:57:00;2.40;;;0.85;;
11287;SDS011;5700;50.996;7.044;2023-04-03T15:00:03;1.65;;;0.77;;
11287;SDS011;5700;50.996;7.044;2023-04-03T15:03:05;1.35;;;0.77;;
11287;SDS011;5700;50.996;7.044;2023-04-03T15:06:09;1.27;;;0.60;;
11287;SDS011;5700;50.996;7.044;2023-04-03T15:09:14;2.13;;;1.02;;
11287;SDS011;5700;50.996;7.044;2023-04-03T15:12:20;4.07;;;0.70;;
11287;SDS011;5700;50.996;7.044;2023-04-03T15:15:22;2.50;;;0.60;;
11287;SDS011;5700;50.996;7.044;2023-04-03T15:18:25;1.73;;;0.73;;
11287;SDS011;5700;50.996;7.044;2023-04-03T15:21:28;1.45;;;0.70;;
11287;SDS011;5700;50.996;7.044;2023-04-03T15:24:30;1.85;;;0.80;;
11287;SDS011;5700;50.996;7.044;2023-04-03T15:27:31;1.38;;;0.90;;
11287;SDS011;5700;50.996;7.044;2023-04-03T15:30:33;1.75;;;0.60;;
11287;SDS011;5700;50.996;7.044;2023-04-03T15:33:38;1.45;;;0.60;;
11287;SDS011;5700;50.996;7.044;2023-04-03T15:36:41;3.90;;;0.60;;
11287;SDS011;5700;50.996;7.044;2023-04-03T15:39:42;1.95;;;0.52;;
11287;SDS011;5700;50.996;7.044;2023-04-03T15:42:43;2.08;;;0.70;;
11287;SDS011;5700;50.996;7.044;2023-04-03T15:45:45;0.93;;;0.50;;
11287;SDS011;5700;50.996;7.044;2023-04-03T15:48:46;1.00;;;0.60;;
11287;SDS011;5700;50.996;7.044;2023-04-03T15:51:50;1.50;;;0.90;;
11287;SDS011;5700;50.996;7.044;2023-04-03T15:54:52;1.15;;;0.77;;
11287;SDS011;5700;50.996;7.044;2023-04-03T15:57:53;2.45;;;1.10;;
11287;SDS011;5700;50.996;7.044;2023-04-03T16:00:55;2.15;;;0.63;;
11287;SDS011;5700;50.996;7.044;2023-04-03T16:03:56;4.43;;;0.93;;
11287;SDS011;5700;50.996;7.044;2023-04-03T16:07:01;0.60;;;0.57;;
11287;SDS011;5700;50.996;7.044;2023-04-03T16:10:03;1.88;;;0.80;;
11287;SDS011;5700;50.996;7.044;2023-04-03T16:13:05;1.10;;;0.90;;
11287;SDS011;5700;50.996;7.044;2023-04-03T16:16:07;2.00;;;0.82;;
11287;SDS011;5700;50.996;7.044;2023-04-03T16:19:09;2.22;;;0.82;;
11287;SDS011;5700;50.996;7.044;2023-04-03T16:22:11;1.95;;;0.98;;
11287;SDS011;5700;50.996;7.044;2023-04-03T16:25:13;2.75;;;0.68;;
11287;SDS011;5700;50.996;7.044;2023-04-03T16:28:14;1.77;;;0.70;;
11287;SDS011;5700;50.996;7.044;2023-04-03T16:31:17;3.53;;;0.90;;
11287;SDS011;5700;50.996;7.044;2023-04-03T16:34:18;1.92;;;0.70;;
11287;SDS011;5700;50.996;7.044;2023-04-03T16:37:21;1.98;;;0.75;;
11287;SDS011;5700;50.996;7.044;2023-04-03T16:40:24;1.50;;;0.52;;
11287;SDS011;5700;50.996;7.044;2023-04-03T16:43:26;1.90;;;0.80;;
11287;SDS011;5700;50.996;7.044;2023-04-03T16:46:27;1.65;;;0.60;;
11287;SDS011;5700;50.996;7.044;2023-04-03T16:49:29;1.48;;;0.40;;
11287;SDS011;5700;50.996;7.044;2023-04-03T16:52:34;1.77;;;0.63;;
11287;SDS011;5700;50.996;7.044;2023-04-03T16:55:35;3.15;;;0.80;;
11287;SDS011;5700;50.996;7.044;2023-04-03T16:58:37;0.63;;;0.50;;
11287;SDS011;5700;50.996;7.044;2023-04-03T17:01:38;1.80;;;0.63;;
11287;SDS011;5700;50.996;7.044;2023-04-03T17:04:40;1.67;;;0.60;;
11287;SDS011;5700;50.996;7.044;2023-04-03T17:07:43;1.65;;;0.85;;
11287;SDS011;5700;50.996;7.044;2023-04-03T17:10:44;3.22;;;0.70;;
11287;SDS011;5700;50.996;7.044;2023-04-03T17:13:46;3.40;;;0.80;;
11287;SDS011;5700;50.996;7.044;2023-04-03T17:16:47;1.38;;;0.47;;
11287;SDS011;5700;50.996;7.044;2023-04-03T17:19:48;27.17;;;2.05;;
11287;SDS011;5700;50.996;7.044;2023-04-03T17:22:52;5.82;;;0.93;;
11287;SDS011;5700;50.996;7.044;2023-04-03T17:25:53;1.77;;;0.70;;
11287;SDS011;5700;50.996;7.044;2023-04-03T17:28:55;2.58;;;0.95;;
11287;SDS011;5700;50.996;7.044;2023-04-03T17:31:56;1.23;;;0.70;;
11287;SDS011;5700;50.996;7.044;2023-04-03T17:34:58;4.15;;;0.90;;
11287;SDS011;5700;50.996;7.044;2023-04-03T17:38:00;3.05;;;0.80;;
11287;SDS011;5700;50.996;7.044;2023-04-03T17:41:04;1.88;;;0.90;;
11287;SDS011;5700;50.996;7.044;2023-04-03T17:44:06;2.50;;;0.80;;
11287;SDS011;5700;50.996;7.044;2023-04-03T17:47:07;3.15;;;1.20;;
11287;SDS011;5700;50.996;7.044;2023-04-03T17:50:09;3.10;;;0.82;;
11287;SDS011;5700;50.996;7.044;2023-04-03T17:53:12;2.00;;;1.10;;
11287;SDS011;5700;50.996;7.044;2023-04-03T17:56:15;2.72;;;1.00;;
11287;SDS011;5700;50.996;7.044;2023-04-03T17:59:17;4.07;;;1.00;;
11287;SDS011;5700;50.996;7.044;2023-04-03T18:02:19;2.13;;;0.98;;
11287;SDS011;5700;50.996;7.044;2023-04-03T18:05:20;3.33;;;1.20;;
11287;SDS011;5700;50.996;7.044;2023-04-03T18:08:23;1.50;;;0.80;;
11287;SDS011;5700;50.996;7.044;2023-04-03T18:11:25;1.70;;;0.80;;
11287;SDS011;5700;50.996;7.044;2023-04-03T18:14:27;2.38;;;0.93;;
11287;SDS011;5700;50.996;7.044;2023-04-03T18:17:29;1.90;;;0.90;;
11287;SDS011;5700;50.996;7.044;2023-04-03T18:20:30;1.73;;;1.13;;
11287;SDS011;5700;50.996;7.044;2023-04-03T18:23:33;1.58;;;0.93;;
11287;SDS011;5700;50.996;7.044;2023-04-03T18:26:36;2.70;;;0.90;;
11287;SDS011;5700;50.996;7.044;2023-04-03T18:29:37;2.45;;;0.90;;
11287;SDS011;5700;50.996;7.044;2023-04-03T18:32:41;1.20;;;0.90;;
11287;SDS011;5700;50.996;7.044;2023-04-03T18:35:42;4.53;;;1.25;;
11287;SDS011;5700;50.996;7.044;2023-04-03T18:38:45;4.35;;;1.42;;
11287;SDS011;5700;50.996;7.044;2023-04-03T18:41:46;1.92;;;1.10;;
11287;SDS011;5700;50.996;7.044;2023-04-03T18:44:49;1.48;;;0.80;;
11287;SDS011;5700;50.996;7.044;2023-04-03T18:47:52;3.75;;;1.23;;
11287;SDS011;5700;50.996;7.044;2023-04-03T18:50:53;1.90;;;1.10;;